Oney Z — J8B4719 — position and weather

sailwx.info

Track history (hours):
 
Tides and Currents Weather Stations Pressure Air Temp Water Temp Dewpoint Dewpoint Depression Visibility Wind Speed Wind Dir Waves Ship Positions

Oney Z

Last reported at 2016-Aug-29 16:17 UTC. Time now 2016-Aug-31 06:09 UTC.
Position N 35°50' E 010°41'.

Length 79 m; draft 3.9 m.

Type: Cargo ship. MMSI: 376099000.

Date/timePositionNaut miles runAvg speedWind from/ knotsBaromVisibWave heightAir tempDewpointWater temp
2016-Aug-29 16:17N 35°50' E 010°41'0 0.0
2016-Aug-29 15:26N 35°50' E 010°41'0 0.0
2016-Aug-29 14:26N 35°50' E 010°41'0 0.0
2016-Aug-28 15:05N 35°50' E 010°41'0 0.0
2016-Aug-28 14:26N 35°50' E 010°41'133 2.6
2016-Aug-26 11:33N 36°10' E 013°23'8 8.2
2016-Aug-26 10:33N 36°11' E 013°34'8 8.2
2016-Aug-26 09:33N 36°13' E 013°44'8 8.0
2016-Aug-26 08:33N 36°14' E 013°53'8 7.6
2016-Aug-26 07:34N 36°15' E 014°03'8 7.9
2016-Aug-26 06:33N 36°16' E 014°12'16 7.9
2016-Aug-26 04:33N 36°19' E 014°32'  
2016-Aug-23 07:12N 37°19' E 024°56'9 8.9
2016-Aug-23 06:13N 37°24' E 025°05'6 8.8
2016-Aug-23 05:33N 37°28' E 025°11'  
Track history (hours):
 
Tides and Currents Weather Stations Pressure Air Temp Water Temp Dewpoint Dewpoint Depression Visibility Wind Speed Wind Dir Waves Ship Positions

Oney Z

Last reported at 2016-Aug-29 16:17 UTC. Time now 2016-Aug-31 06:09 UTC.
Position N 35°50' E 010°41'.

Length 79 m; draft 3.9 m.

Type: Cargo ship. MMSI: 376099000.

Date/timePositionNaut miles runAvg speedWind from/ knotsBaromVisibWave heightAir tempDewpointWater temp
2016-Aug-29 16:17N 35°50' E 010°41'0 0.0
2016-Aug-29 15:26N 35°50' E 010°41'0 0.0
2016-Aug-29 14:26N 35°50' E 010°41'0 0.0
2016-Aug-28 15:05N 35°50' E 010°41'0 0.0
2016-Aug-28 14:26N 35°50' E 010°41'133 2.6
2016-Aug-26 11:33N 36°10' E 013°23'8 8.2
2016-Aug-26 10:33N 36°11' E 013°34'8 8.2
2016-Aug-26 09:33N 36°13' E 013°44'8 8.0
2016-Aug-26 08:33N 36°14' E 013°53'8 7.6
2016-Aug-26 07:34N 36°15' E 014°03'8 7.9
2016-Aug-26 06:33N 36°16' E 014°12'16 7.9
2016-Aug-26 04:33N 36°19' E 014°32'  
2016-Aug-23 07:12N 37°19' E 024°56'9 8.9
2016-Aug-23 06:13N 37°24' E 025°05'6 8.8
2016-Aug-23 05:33N 37°28' E 025°11'  

Dump ship's entire track history